Time;durP1;ratioP1;P1;durP2;ratioP2;P2;SDS_P1;SDS_P2;PMS_P1;PMS_P2;Temp;Humidity;BMP_temperature;BMP_pressure;BME280_temperature;BME280_humidity;BME280_pressure;Samples;Min_cycle;Max_cycle;Signal;HPM_P1;HPM_P2
2023/01/26 00:01:19;;;;;;;;;;;0.20;99.90;;;;;;5035598;28;19999;-76
2023/01/26 00:03:44;;;;;;;;;;;0.20;99.90;;;;;;5035431;28;20383;-76
2023/01/26 00:06:12;;;;;;;;;;;0.20;99.90;;;;;;5017704;28;19905;-76
2023/01/26 00:08:42;;;;;;;;;;;0.20;99.90;;;;;;5035419;28;19905;-76
2023/01/26 00:11:08;;;;;;;;;;;0.20;99.90;;;;;;5017584;28;19977;-76
2023/01/26 00:13:34;;;;;;;;;;;0.20;99.90;;;;;;5035172;28;19905;-76
2023/01/26 00:16:00;;;;;;;;;;;0.20;99.90;;;;;;5035151;28;19920;-76
2023/01/26 00:18:25;;;;;;;;;;;0.20;99.90;;;;;;5017405;28;19905;-76
2023/01/26 00:20:54;;;;;;;;;;;0.10;99.90;;;;;;5035166;28;19920;-76
2023/01/26 00:23:20;;;;;;;;;;;0.20;99.90;;;;;;5034811;28;20074;-76
2023/01/26 00:25:45;;;;;;;;;;;0.20;99.90;;;;;;5034875;28;19952;-76
2023/01/26 00:28:10;;;;;;;;;;;0.30;99.90;;;;;;5017306;28;19909;-76
2023/01/26 00:30:36;;;;;;;;;;;0.30;99.90;;;;;;5035429;28;19991;-76
2023/01/26 00:33:01;;;;;;;;;;;0.20;99.90;;;;;;5034931;28;19951;-76
2023/01/26 00:35:27;;;;;;;;;;;0.20;99.90;;;;;;5017277;28;20276;-76
2023/01/26 00:37:53;;;;;;;;;;;0.20;99.90;;;;;;5017130;28;19911;-76
2023/01/26 00:40:19;;;;;;;;;;;0.20;99.90;;;;;;5034927;28;19912;-77
2023/01/26 00:42:44;;;;;;;;;;;0.20;99.90;;;;;;5017419;28;19905;-76
2023/01/26 00:45:10;;;;;;;;;;;0.20;99.90;;;;;;5017158;28;20287;-76
2023/01/26 00:47:35;;;;;;;;;;;0.20;99.90;;;;;;5035517;28;20000;-76
2023/01/26 00:50:01;;;;;;;;;;;0.30;99.90;;;;;;5017304;28;19916;-76
2023/01/26 00:52:26;;;;;;;;;;;0.30;99.90;;;;;;5035364;28;19905;-76
2023/01/26 00:54:52;;;;;;;;;;;0.20;99.90;;;;;;5017558;28;19905;-76
2023/01/26 00:57:17;;;;;;;;;;;0.30;99.90;;;;;;5034395;28;19954;-76
2023/01/26 00:59:43;;;;;;;;;;;0.30;99.90;;;;;;5035012;28;19974;-76
2023/01/26 01:02:08;;;;;;;;;;;0.30;99.90;;;;;;5017138;28;19905;-76
2023/01/26 01:04:33;;;;;;;;;;;0.20;99.90;;;;;;5034930;28;19909;-76
2023/01/26 01:06:59;;;;;;;;;;;0.30;99.90;;;;;;5016560;28;20283;-76
2023/01/26 01:09:24;;;;;;;;;;;0.30;99.90;;;;;;5035287;28;19992;-76
2023/01/26 01:11:50;;;;;;;;;;;0.30;99.90;;;;;;5017980;28;19905;-76
2023/01/26 01:14:16;;;;;;;;;;;0.30;99.90;;;;;;5035796;28;20288;-76
2023/01/26 01:16:42;;;;;;;;;;;0.30;99.90;;;;;;5017466;28;20334;-76
2023/01/26 01:19:11;;;;;;;;;;;0.30;99.90;;;;;;5036250;28;19912;-76
2023/01/26 01:21:37;;;;;;;;;;;0.30;99.90;;;;;;5018056;28;19905;-76
2023/01/26 01:24:03;;;;;;;;;;;0.30;99.90;;;;;;5036158;28;19932;-76
2023/01/26 01:26:28;;;;;;;;;;;0.30;99.90;;;;;;5018005;28;19905;-76
2023/01/26 01:28:57;;;;;;;;;;;0.30;99.90;;;;;;5035822;28;20310;-76
2023/01/26 01:31:23;;;;;;;;;;;0.30;99.90;;;;;;5017984;28;19905;-76
2023/01/26 01:33:48;;;;;;;;;;;0.30;99.90;;;;;;5017239;28;19959;-76
2023/01/26 01:36:14;;;;;;;;;;;0.40;99.90;;;;;;5035841;28;19905;-76
2023/01/26 01:38:40;;;;;;;;;;;0.30;99.90;;;;;;5035759;28;20283;-76
2023/01/26 01:41:06;;;;;;;;;;;0.30;99.90;;;;;;5017805;28;19905;-76
2023/01/26 01:43:32;;;;;;;;;;;0.30;99.90;;;;;;5034872;28;19912;-76
2023/01/26 01:45:59;;;;;;;;;;;0.30;99.90;;;;;;5016807;28;20388;-76
2023/01/26 01:48:30;;;;;;;;;;;0.30;99.90;;;;;;5035235;28;20043;-76
2023/01/26 01:50:57;;;;;;;;;;;0.30;99.90;;;;;;5017724;28;19905;-76
2023/01/26 01:53:26;;;;;;;;;;;0.30;99.90;;;;;;5035421;28;19912;-75
2023/01/26 01:55:53;;;;;;;;;;;0.30;99.90;;;;;;5035143;28;19945;-76
2023/01/26 01:58:19;;;;;;;;;;;0.30;99.90;;;;;;5017448;28;19912;-76
2023/01/26 02:00:44;;;;;;;;;;;1.10;99.90;;;;;;5017388;28;19905;-76
2023/01/26 02:03:10;;;;;;;;;;;0.30;99.90;;;;;;5035172;28;20368;-76
2023/01/26 02:05:54;;;;;;;;;;;0.40;99.90;;;;;;5035078;28;19948;-76
2023/01/26 02:08:21;;;;;;;;;;;0.40;99.90;;;;;;5017310;28;19943;-76
2023/01/26 02:10:48;;;;;;;;;;;0.40;99.90;;;;;;5038811;28;19955;-76
2023/01/26 02:13:15;;;;;;;;;;;0.40;99.90;;;;;;5038439;28;19905;-76
2023/01/26 02:15:40;;;;;;;;;;;0.30;99.90;;;;;;5039212;28;19913;-75
2023/01/26 02:18:07;;;;;;;;;;;0.40;99.90;;;;;;5038662;28;20433;-75
2023/01/26 02:20:38;;;;;;;;;;;0.30;99.90;;;;;;5037884;28;20028;-75
2023/01/26 02:23:13;;;;;;;;;;;0.40;99.90;;;;;;5020740;28;19966;-75
2023/01/26 02:25:44;;;;;;;;;;;0.30;99.90;;;;;;5038558;28;20272;-76
2023/01/26 02:28:10;;;;;;;;;;;0.40;99.90;;;;;;5020219;28;19911;-76
2023/01/26 02:30:35;;;;;;;;;;;0.30;99.90;;;;;;5038489;28;19905;-76
2023/01/26 02:33:01;;;;;;;;;;;0.30;99.90;;;;;;5037888;28;19931;-76
2023/01/26 02:35:26;;;;;;;;;;;0.30;99.90;;;;;;5037461;28;20300;-76
2023/01/26 02:37:52;;;;;;;;;;;0.30;99.90;;;;;;5038481;28;19909;-76
2023/01/26 02:40:36;;;;;;;;;;;0.40;99.90;;;;;;5037539;28;19905;-76
2023/01/26 02:43:02;;;;;;;;;;;0.30;99.90;;;;;;5020188;28;20410;-76
2023/01/26 02:45:29;;;;;;;;;;;0.40;99.90;;;;;;5037692;28;19909;-76
2023/01/26 02:47:54;;;;;;;;;;;0.40;99.90;;;;;;5037461;28;19905;-76
2023/01/26 02:50:20;;;;;;;;;;;0.40;99.90;;;;;;5038326;28;20027;-76
2023/01/26 02:52:45;;;;;;;;;;;0.40;99.90;;;;;;5038145;28;19912;-76
2023/01/26 02:55:29;;;;;;;;;;;0.40;99.90;;;;;;5020448;28;19949;-76
2023/01/26 02:57:59;;;;;;;;;;;0.40;99.90;;;;;;5038436;28;19905;-76
2023/01/26 03:00:25;;;;;;;;;;;0.40;99.90;;;;;;5019276;28;19967;-76
2023/01/26 03:02:52;;;;;;;;;;;0.40;99.90;;;;;;5037574;28;19909;-76
2023/01/26 03:05:18;;;;;;;;;;;0.40;99.90;;;;;;5020225;28;19909;-76
2023/01/26 03:07:43;;;;;;;;;;;0.40;99.90;;;;;;5021351;28;19912;-76
2023/01/26 03:10:09;;;;;;;;;;;0.40;99.90;;;;;;5038154;28;19906;-76
2023/01/26 03:12:35;;;;;;;;;;;0.40;99.90;;;;;;5038386;28;19909;-76
2023/01/26 03:17:44;;;;;;;;;;;0.40;99.90;;;;;;5037854;28;20322;-76
2023/01/26 03:28:22;;;;;;;;;;;0.50;99.90;;;;;;5037686;28;20374;-76
2023/01/26 03:30:51;;;;;;;;;;;0.50;99.90;;;;;;5018873;28;20008;-76
2023/01/26 03:33:17;;;;;;;;;;;0.50;99.90;;;;;;5037511;28;20331;-76
2023/01/26 03:35:43;;;;;;;;;;;0.80;99.90;;;;;;5036247;28;19909;-76
2023/01/26 03:38:08;;;;;;;;;;;0.60;99.90;;;;;;5019154;28;19905;-76
2023/01/26 03:56:59;;;;;;;;;;;0.60;99.90;;;;;;5035914;28;19959;-76
2023/01/26 03:59:37;;;;;;;;;;;0.60;99.90;;;;;;5036737;28;19999;-76
2023/01/26 04:10:16;;;;;;;;;;;0.60;99.90;;;;;;5035741;28;20402;-76
2023/01/26 04:12:42;;;;;;;;;;;0.60;99.90;;;;;;5035859;28;19905;-76
2023/01/26 04:23:20;;;;;;;;;;;0.60;99.90;;;;;;5035763;28;20288;-76
2023/01/26 04:25:46;;;;;;;;;;;0.70;99.90;;;;;;5035275;28;19908;-75
2023/01/26 04:28:12;;;;;;;;;;;0.70;99.90;;;;;;5035983;28;19913;-76
2023/01/26 04:30:38;;;;;;;;;;;0.70;99.90;;;;;;5035946;28;19905;-76
2023/01/26 04:33:03;;;;;;;;;;;0.70;99.90;;;;;;5017514;28;19905;-76
2023/01/26 04:35:29;;;;;;;;;;;0.70;99.90;;;;;;5035664;28;19912;-76
2023/01/26 04:37:54;;;;;;;;;;;0.70;99.90;;;;;;5035615;28;19905;-76
2023/01/26 04:40:20;;;;;;;;;;;0.70;99.90;;;;;;5035875;28;19909;-76
2023/01/26 04:42:45;;;;;;;;;;;1.30;99.90;;;;;;5036148;28;20352;-76
2023/01/26 04:45:11;;;;;;;;;;;0.70;99.90;;;;;;5035668;28;19912;-76
2023/01/26 04:47:36;;;;;;;;;;;0.70;99.90;;;;;;5017761;28;20004;-76
2023/01/26 04:50:02;;;;;;;;;;;0.70;99.90;;;;;;5035545;28;19972;-76
2023/01/26 04:52:27;;;;;;;;;;;0.70;99.90;;;;;;5034620;28;19905;-76
2023/01/26 04:54:53;;;;;;;;;;;0.70;99.90;;;;;;5035073;28;19912;-76
2023/01/26 04:57:19;;;;;;;;;;;0.80;99.90;;;;;;5035450;28;19905;-76
2023/01/26 04:59:45;;;;;;;;;;;0.80;99.90;;;;;;5017337;28;19905;-76
2023/01/26 05:02:11;;;;;;;;;;;0.80;99.90;;;;;;5017765;28;19915;-76
2023/01/26 05:04:36;;;;;;;;;;;0.80;99.90;;;;;;5035416;28;19909;-75
2023/01/26 05:07:02;;;;;;;;;;;0.80;99.90;;;;;;5035213;28;19905;-75
2023/01/26 05:09:27;;;;;;;;;;;0.80;99.90;;;;;;5018364;28;19911;-75
2023/01/26 05:11:53;;;;;;;;;;;0.80;99.90;;;;;;5018125;28;19909;-76
2023/01/26 05:14:18;;;;;;;;;;;0.80;99.90;;;;;;5036617;28;19905;-76
2023/01/26 05:16:43;;;;;;;;;;;0.80;99.90;;;;;;5018522;28;19932;-76
2023/01/26 05:19:09;;;;;;;;;;;0.90;99.90;;;;;;5018539;28;19905;-76
2023/01/26 05:21:34;;;;;;;;;;;0.90;99.90;;;;;;5018079;28;19964;-76
2023/01/26 05:24:00;;;;;;;;;;;0.90;99.90;;;;;;5018367;28;19912;-76
2023/01/26 05:26:25;;;;;;;;;;;0.90;99.90;;;;;;5035099;28;20017;-76
2023/01/26 05:28:51;;;;;;;;;;;0.90;99.90;;;;;;5035502;28;19916;-76
2023/01/26 05:31:16;;;;;;;;;;;0.90;99.90;;;;;;5037035;28;19913;-76
2023/01/26 05:33:42;;;;;;;;;;;0.90;99.90;;;;;;5035808;28;19951;-76
2023/01/26 05:36:08;;;;;;;;;;;0.90;99.90;;;;;;5035106;28;19905;-76
2023/01/26 05:38:33;;;;;;;;;;;1.00;99.90;;;;;;5035930;28;19909;-76
2023/01/26 05:40:59;;;;;;;;;;;1.00;99.90;;;;;;5035364;28;19909;-76
2023/01/26 05:43:24;;;;;;;;;;;1.00;99.90;;;;;;5036984;28;20356;-76
2023/01/26 05:45:50;;;;;;;;;;;1.00;99.90;;;;;;5039115;28;19916;-76
2023/01/26 05:48:16;;;;;;;;;;;1.00;99.90;;;;;;5021965;28;19955;-76
2023/01/26 05:50:41;;;;;;;;;;;1.00;99.90;;;;;;5039734;28;19908;-76
2023/01/26 05:53:07;;;;;;;;;;;1.00;99.90;;;;;;5021740;28;19905;-76
2023/01/26 05:55:32;;;;;;;;;;;1.00;99.90;;;;;;5038662;28;19956;-76
2023/01/26 05:57:58;;;;;;;;;;;1.00;99.90;;;;;;5038018;28;19972;-76
2023/01/26 06:00:23;;;;;;;;;;;1.00;99.90;;;;;;5038877;28;20282;-76
2023/01/26 06:02:49;;;;;;;;;;;1.00;99.90;;;;;;5021433;28;19912;-76
2023/01/26 06:05:14;;;;;;;;;;;1.00;99.90;;;;;;5038786;28;19971;-76
2023/01/26 06:07:40;;;;;;;;;;;1.00;99.90;;;;;;5021576;28;19909;-77
2023/01/26 06:10:05;;;;;;;;;;;1.00;99.90;;;;;;5021966;28;19905;-77
2023/01/26 06:12:34;;;;;;;;;;;1.00;99.90;;;;;;5038668;28;19909;-77
2023/01/26 06:15:00;;;;;;;;;;;1.00;99.90;;;;;;5021277;28;19913;-77
2023/01/26 06:17:25;;;;;;;;;;;1.00;99.90;;;;;;5038962;28;19932;-77
2023/01/26 06:19:51;;;;;;;;;;;1.00;99.90;;;;;;5039518;28;19912;-77
2023/01/26 06:22:16;;;;;;;;;;;1.10;99.90;;;;;;5038900;28;19905;-77
2023/01/26 06:24:42;;;;;;;;;;;1.10;99.90;;;;;;5038808;28;19999;-77
2023/01/26 06:27:10;;;;;;;;;;;1.10;99.90;;;;;;5038188;28;19905;-77
2023/01/26 06:29:36;;;;;;;;;;;1.10;99.90;;;;;;5020651;28;19909;-77
2023/01/26 06:32:01;;;;;;;;;;;1.10;99.90;;;;;;5038129;28;19915;-77
2023/01/26 06:34:27;;;;;;;;;;;1.10;99.90;;;;;;5038757;28;19905;-77
2023/01/26 06:36:53;;;;;;;;;;;1.10;99.90;;;;;;5037774;28;20252;-77
2023/01/26 06:39:19;;;;;;;;;;;1.10;99.90;;;;;;5020783;28;20321;-78
2023/01/26 06:41:44;;;;;;;;;;;1.20;99.90;;;;;;5038563;28;19996;-77
2023/01/26 06:44:10;;;;;;;;;;;1.20;99.90;;;;;;5037830;28;19908;-77
2023/01/26 06:46:35;;;;;;;;;;;1.20;99.90;;;;;;5038346;28;19912;-77
2023/01/26 06:49:02;;;;;;;;;;;1.20;99.90;;;;;;5020754;28;19956;-78
2023/01/26 06:51:46;;;;;;;;;;;1.20;99.90;;;;;;5020561;28;19905;-77
2023/01/26 06:54:12;;;;;;;;;;;1.20;99.90;;;;;;5019368;28;19909;-77
2023/01/26 06:56:38;;;;;;;;;;;1.20;99.90;;;;;;5038627;28;20372;-77
2023/01/26 06:59:04;;;;;;;;;;;1.20;99.90;;;;;;5037173;28;19955;-77
2023/01/26 07:01:32;;;;;;;;;;;1.20;99.90;;;;;;5037536;28;19905;-77
2023/01/26 07:03:57;;;;;;;;;;;1.20;99.90;;;;;;5037209;28;19912;-77
2023/01/26 07:06:23;;;;;;;;;;;1.20;99.90;;;;;;5036918;28;19905;-77
2023/01/26 07:08:48;;;;;;;;;;;1.20;99.90;;;;;;5019220;28;19958;-77
2023/01/26 07:11:15;;;;;;;;;;;1.20;99.90;;;;;;5036847;28;19912;-77
2023/01/26 07:13:41;;;;;;;;;;;1.20;99.90;;;;;;5019645;28;19905;-77
2023/01/26 07:16:07;;;;;;;;;;;1.30;99.90;;;;;;5018624;28;19912;-78
2023/01/26 07:18:33;;;;;;;;;;;1.20;99.90;;;;;;5036307;28;20283;-78
2023/01/26 07:20:59;;;;;;;;;;;1.20;99.90;;;;;;5018515;28;19912;-77
2023/01/26 07:23:25;;;;;;;;;;;1.30;99.90;;;;;;5036746;28;20391;-78
2023/01/26 07:25:50;;;;;;;;;;;1.30;99.90;;;;;;5037607;28;19909;-77
2023/01/26 07:28:16;;;;;;;;;;;1.30;99.90;;;;;;5036366;28;19911;-77
2023/01/26 07:30:41;;;;;;;;;;;1.30;99.90;;;;;;5036306;28;20363;-77
2023/01/26 07:33:07;;;;;;;;;;;1.30;99.90;;;;;;5036328;28;19905;-77
2023/01/26 07:35:32;;;;;;;;;;;1.30;99.90;;;;;;5038569;28;19959;-77
2023/01/26 07:37:58;;;;;;;;;;;1.30;99.90;;;;;;5036421;28;19906;-77
2023/01/26 07:40:23;;;;;;;;;;;1.30;99.90;;;;;;5018629;28;19951;-77
2023/01/26 07:42:49;;;;;;;;;;;1.40;99.90;;;;;;5036322;28;19931;-77
2023/01/26 07:45:16;;;;;;;;;;;1.40;99.90;;;;;;5018357;28;20426;-77
2023/01/26 07:47:42;;;;;;;;;;;1.40;99.90;;;;;;5018270;28;19915;-77
2023/01/26 07:50:09;;;;;;;;;;;1.40;99.90;;;;;;5018233;28;19909;-78
2023/01/26 07:52:34;;;;;;;;;;;1.40;99.90;;;;;;5035543;28;19966;-78
2023/01/26 07:55:00;;;;;;;;;;;1.50;99.90;;;;;;5018076;28;19905;-78
2023/01/26 07:57:25;;;;;;;;;;;1.50;99.90;;;;;;5018147;28;19909;-76
2023/01/26 07:59:51;;;;;;;;;;;1.50;99.90;;;;;;5017935;28;20003;-77
2023/01/26 08:02:16;;;;;;;;;;;1.60;99.90;;;;;;5035756;28;19904;-77
2023/01/26 08:04:42;;;;;;;;;;;1.60;99.90;;;;;;5036416;28;19908;-77
2023/01/26 08:07:07;;;;;;;;;;;1.60;99.90;;;;;;5018058;28;19905;-77
2023/01/26 08:09:33;;;;;;;;;;;1.70;99.90;;;;;;5035843;28;19932;-77
2023/01/26 08:11:58;;;;;;;;;;;1.70;99.90;;;;;;5035715;28;19905;-77
2023/01/26 08:14:24;;;;;;;;;;;1.70;99.90;;;;;;5035567;28;20043;-77
2023/01/26 08:16:49;;;;;;;;;;;1.70;99.90;;;;;;5035647;28;19905;-77
2023/01/26 08:19:14;;;;;;;;;;;1.80;99.90;;;;;;5035889;28;19999;-77
2023/01/26 08:21:40;;;;;;;;;;;1.90;99.90;;;;;;5017630;28;19905;-77
2023/01/26 08:24:06;;;;;;;;;;;1.90;99.90;;;;;;5035276;28;19905;-77
2023/01/26 08:26:31;;;;;;;;;;;2.00;99.90;;;;;;5017184;28;19924;-77
2023/01/26 08:28:57;;;;;;;;;;;2.00;99.90;;;;;;5017225;28;19905;-77
2023/01/26 08:31:24;;;;;;;;;;;2.10;99.90;;;;;;5035255;28;20318;-77
2023/01/26 08:33:50;;;;;;;;;;;2.10;99.90;;;;;;5017858;28;20372;-77
2023/01/26 08:36:15;;;;;;;;;;;2.10;99.90;;;;;;5017758;28;19970;-77
2023/01/26 08:38:41;;;;;;;;;;;2.20;99.90;;;;;;5034839;28;20371;-77
2023/01/26 08:41:07;;;;;;;;;;;2.20;99.90;;;;;;5035322;28;19905;-77
2023/01/26 08:43:33;;;;;;;;;;;2.30;99.90;;;;;;5035058;28;19959;-78
2023/01/26 08:45:58;;;;;;;;;;;2.40;99.90;;;;;;5035175;28;20386;-78
2023/01/26 08:48:24;;;;;;;;;;;2.40;99.90;;;;;;5034696;28;19913;-78
2023/01/26 08:50:53;;;;;;;;;;;2.40;99.90;;;;;;5034790;28;20360;-78
2023/01/26 08:53:19;;;;;;;;;;;2.50;99.90;;;;;;5035001;28;19905;-77
2023/01/26 08:55:44;;;;;;;;;;;2.60;99.90;;;;;;5035065;28;20364;-77
2023/01/26 08:58:10;;;;;;;;;;;2.70;99.90;;;;;;5016988;28;19911;-77
2023/01/26 09:00:36;;;;;;;;;;;2.80;99.90;;;;;;5034562;28;19959;-78
2023/01/26 09:03:02;;;;;;;;;;;2.90;99.90;;;;;;5016996;28;19917;-78
2023/01/26 09:05:30;;;;;;;;;;;2.90;99.90;;;;;;5016518;28;19909;-78
2023/01/26 09:07:55;;;;;;;;;;;3.00;99.90;;;;;;5034293;28;19999;-78
2023/01/26 09:10:21;;;;;;;;;;;3.10;99.90;;;;;;5035694;28;19943;-78
2023/01/26 09:12:46;;;;;;;;;;;3.30;99.90;;;;;;5035572;28;19912;-78
2023/01/26 09:15:12;;;;;;;;;;;3.50;99.90;;;;;;5043946;22;19921;-75
2023/01/26 09:17:37;;;;;;;;;;;3.60;99.90;;;;;;5034208;28;19905;-75
2023/01/26 09:20:04;;;;;;;;;;;3.70;99.90;;;;;;5037595;28;19963;-75
2023/01/26 09:22:29;;;;;;;;;;;3.80;99.90;;;;;;5038778;28;19905;-75
2023/01/26 09:24:55;;;;;;;;;;;4.00;99.90;;;;;;5038051;28;19913;-75
2023/01/26 09:27:21;;;;;;;;;;;4.10;99.90;;;;;;5038310;28;19944;-75
2023/01/26 09:29:46;;;;;;;;;;;4.20;99.90;;;;;;5038554;28;19912;-75
2023/01/26 09:32:12;;;;;;;;;;;4.40;99.90;;;;;;5021908;28;19932;-75
2023/01/26 09:34:37;;;;;;;;;;;4.50;99.90;;;;;;5020738;28;19904;-75
2023/01/26 09:37:05;;;;;;;;;;;4.60;99.90;;;;;;5037739;28;20000;-76
2023/01/26 09:39:30;;;;;;;;;;;4.80;99.90;;;;;;5038066;28;20374;-75
2023/01/26 09:42:03;;;;;;;;;;;4.90;99.90;;;;;;5038166;28;19932;-75
2023/01/26 09:44:31;;;;;;;;;;;5.00;99.90;;;;;;5037726;28;20405;-76
2023/01/26 09:47:02;;;;;;;;;;;5.10;99.90;;;;;;5019709;28;19905;-75
2023/01/26 09:49:41;;;;;;;;;;;5.20;99.90;;;;;;5037707;28;19905;-75
2023/01/26 09:52:09;;;;;;;;;;;5.20;99.90;;;;;;5037652;28;19959;-75
2023/01/26 09:54:48;;;;;;;;;;;5.30;99.90;;;;;;5020574;28;19956;-75
2023/01/26 09:57:33;;;;;;;;;;;5.50;99.90;;;;;;5039144;28;19905;-75
2023/01/26 10:00:01;;;;;;;;;;;5.50;99.90;;;;;;5037493;28;20368;-75
2023/01/26 10:02:45;;;;;;;;;;;5.60;99.90;;;;;;5037438;28;20381;-75
2023/01/26 10:05:15;;;;;;;;;;;5.70;99.90;;;;;;5037136;28;19909;-76
2023/01/26 10:07:44;;;;;;;;;;;5.70;99.90;;;;;;5037489;28;20380;-75
2023/01/26 10:10:14;;;;;;;;;;;5.80;99.90;;;;;;5036895;28;19927;-75
2023/01/26 10:12:40;;;;;;;;;;;5.90;99.90;;;;;;5037180;28;19905;-75
2023/01/26 10:15:20;;;;;;;;;;;6.00;99.90;;;;;;5036856;28;19913;-74
2023/01/26 10:17:46;;;;;;;;;;;6.00;99.90;;;;;;5036883;28;19905;-75
2023/01/26 10:20:20;;;;;;;;;;;6.10;99.90;;;;;;5018904;28;19912;-75
2023/01/26 10:22:51;;;;;;;;;;;6.20;99.90;;;;;;5037529;28;20371;-74
2023/01/26 10:25:18;;;;;;;;;;;6.20;99.90;;;;;;5036637;28;19967;-75
2023/01/26 10:27:47;;;;;;;;;;;6.20;99.90;;;;;;5036460;28;19905;-75
2023/01/26 10:30:16;;;;;;;;;;;6.20;99.90;;;;;;5017693;28;20379;-75
2023/01/26 10:32:42;;;;;;;;;;;6.20;99.90;;;;;;5036776;28;19909;-77
2023/01/26 10:35:18;;;;;;;;;;;6.40;99.90;;;;;;5036686;28;19928;-75
2023/01/26 10:37:44;;;;;;;;;;;6.30;99.90;;;;;;5018650;28;19959;-75
2023/01/26 10:40:10;;;;;;;;;;;6.40;99.90;;;;;;5036693;28;19988;-76
2023/01/26 10:42:37;;;;;;;;;;;6.50;99.90;;;;;;5018915;28;19905;-75
2023/01/26 10:45:21;;;;;;;;;;;6.60;99.90;;;;;;5018672;28;20264;-76
2023/01/26 10:48:01;;;;;;;;;;;6.60;99.90;;;;;;5018854;28;20335;-75
2023/01/26 10:50:26;;;;;;;;;;;6.90;99.90;;;;;;5018693;28;19912;-75
2023/01/26 10:52:55;;;;;;;;;;;6.80;99.90;;;;;;5036306;28;20395;-75
2023/01/26 10:55:21;;;;;;;;;;;6.90;99.90;;;;;;5018421;28;19912;-75
2023/01/26 10:57:46;;;;;;;;;;;6.90;99.90;;;;;;5036161;28;19905;-75
2023/01/26 11:00:15;;;;;;;;;;;6.90;99.90;;;;;;5018115;28;20006;-76
2023/01/26 11:02:48;;;;;;;;;;;7.00;99.90;;;;;;5035942;28;19905;-75
2023/01/26 11:05:17;;;;;;;;;;;7.10;99.90;;;;;;5017995;28;20371;-75
2023/01/26 11:07:44;;;;;;;;;;;7.20;99.90;;;;;;5018251;28;19913;-75
2023/01/26 11:10:15;;;;;;;;;;;7.30;99.90;;;;;;5017996;28;19906;-75
2023/01/26 11:12:41;;;;;;;;;;;7.30;99.90;;;;;;5036324;28;19909;-75
2023/01/26 11:15:15;;;;;;;;;;;7.40;99.90;;;;;;5035618;28;19913;-76
2023/01/26 11:17:54;;;;;;;;;;;7.50;99.90;;;;;;5035701;28;19905;-75
2023/01/26 11:20:23;;;;;;;;;;;7.60;99.90;;;;;;5035608;28;19963;-75
2023/01/26 11:22:57;;;;;;;;;;;7.80;99.90;;;;;;5035692;28;19905;-76
2023/01/26 11:25:26;;;;;;;;;;;7.80;99.90;;;;;;5035434;28;19936;-76
2023/01/26 11:28:07;;;;;;;;;;;7.80;99.90;;;;;;5035403;28;19913;-76
2023/01/26 11:30:40;;;;;;;;;;;7.90;99.90;;;;;;5035449;28;20007;-75
2023/01/26 11:33:17;;;;;;;;;;;7.90;99.90;;;;;;5035187;28;19952;-74
2023/01/26 11:35:50;;;;;;;;;;;7.90;99.90;;;;;;5035269;28;19913;-75
2023/01/26 11:38:30;;;;;;;;;;;7.80;99.90;;;;;;5035287;28;20311;-75
2023/01/26 11:40:55;;;;;;;;;;;7.80;99.90;;;;;;5035031;28;20256;-75
2023/01/26 11:43:37;;;;;;;;;;;7.80;99.90;;;;;;5017599;28;19912;-76
2023/01/26 11:46:09;;;;;;;;;;;7.70;99.90;;;;;;5035182;28;19920;-75
2023/01/26 11:48:46;;;;;;;;;;;7.80;99.90;;;;;;5035168;28;19905;-75
2023/01/26 11:51:18;;;;;;;;;;;7.80;99.90;;;;;;5034944;28;19908;-75
2023/01/26 11:53:55;;;;;;;;;;;8.00;99.90;;;;;;5017255;28;20328;-75
2023/01/26 11:56:34;;;;;;;;;;;8.10;99.90;;;;;;5035116;28;19912;-75
2023/01/26 11:59:08;;;;;;;;;;;8.30;99.90;;;;;;5035137;28;19912;-75
2023/01/26 12:01:48;;;;;;;;;;;8.50;99.90;;;;;;5034901;28;20008;-76
2023/01/26 12:04:16;;;;;;;;;;;8.60;99.90;;;;;;5017029;28;19977;-75
2023/01/26 12:06:44;;;;;;;;;;;8.70;99.90;;;;;;5034717;28;19962;-75
2023/01/26 12:09:17;;;;;;;;;;;8.60;99.90;;;;;;5034826;28;19905;-76
2023/01/26 12:11:56;;;;;;;;;;;8.50;99.90;;;;;;5017053;28;19912;-76
2023/01/26 12:14:22;;;;;;;;;;;8.40;99.90;;;;;;5016880;28;19935;-76
2023/01/26 12:16:47;;;;;;;;;;;8.70;99.90;;;;;;5034402;28;19913;-75
2023/01/26 12:19:25;;;;;;;;;;;8.30;99.90;;;;;;5016871;28;19913;-75
2023/01/26 12:21:53;;;;;;;;;;;8.20;99.90;;;;;;5034623;28;19905;-76
2023/01/26 12:24:23;;;;;;;;;;;8.30;99.90;;;;;;5034313;28;19909;-76
2023/01/26 12:26:51;;;;;;;;;;;8.30;99.90;;;;;;5034431;28;19953;-76
2023/01/26 12:29:23;;;;;;;;;;;8.50;99.90;;;;;;5016587;28;19905;-76
2023/01/26 12:31:48;;;;;;;;;;;8.70;99.90;;;;;;5017030;28;20360;-76
2023/01/26 12:34:14;;;;;;;;;;;8.90;99.90;;;;;;5034727;28;19912;-76
2023/01/26 12:36:51;;;;;;;;;;;9.10;99.90;;;;;;5034356;28;19955;-76
2023/01/26 12:39:19;;;;;;;;;;;9.20;99.90;;;;;;5034800;28;20412;-76
2023/01/26 12:41:45;;;;;;;;;;;9.20;99.90;;;;;;5034117;28;19905;-76
2023/01/26 12:44:31;;;;;;;;;;;9.20;99.90;;;;;;5016358;28;19959;-76
2023/01/26 12:47:02;;;;;;;;;;;9.20;99.90;;;;;;5034165;28;19905;-76
2023/01/26 12:49:31;;;;;;;;;;;9.20;99.90;;;;;;5034148;28;19905;-76
2023/01/26 12:52:07;;;;;;;;;;;9.20;99.90;;;;;;5033670;28;20467;-76
2023/01/26 12:54:41;;;;;;;;;;;9.10;99.90;;;;;;5034276;28;19905;-76
2023/01/26 12:57:11;;;;;;;;;;;9.00;99.90;;;;;;5034697;28;19905;-76
2023/01/26 12:59:37;;;;;;;;;;;8.90;99.90;;;;;;5033926;28;19909;-75
2023/01/26 13:02:14;;;;;;;;;;;8.70;99.90;;;;;;5034223;28;19916;-76
2023/01/26 13:04:42;;;;;;;;;;;8.80;99.90;;;;;;5034524;28;19909;-76
2023/01/26 13:07:25;;;;;;;;;;;8.90;99.90;;;;;;5033993;28;20261;-76
2023/01/26 13:10:10;;;;;;;;;;;9.10;99.90;;;;;;5034388;28;19966;-76
2023/01/26 13:12:53;;;;;;;;;;;9.30;99.90;;;;;;5034289;28;19928;-76
2023/01/26 13:15:20;;;;;;;;;;;9.40;99.90;;;;;;5033768;28;19952;-76
2023/01/26 13:17:56;;;;;;;;;;;9.50;99.90;;;;;;5034501;28;19928;-76
2023/01/26 13:20:41;;;;;;;;;;;9.30;99.90;;;;;;5033584;28;20383;-76
2023/01/26 13:23:26;;;;;;;;;;;9.30;99.90;;;;;;5016163;28;20427;-76
2023/01/26 13:26:10;;;;;;;;;;;9.20;99.90;;;;;;5033670;28;20000;-76
2023/01/26 13:28:35;;;;;;;;;;;9.10;99.90;;;;;;5033712;28;19905;-76
2023/01/26 13:31:02;;;;;;;;;;;9.10;99.90;;;;;;5016116;28;19958;-76
2023/01/26 13:33:28;;;;;;;;;;;9.10;99.90;;;;;;5016005;28;19905;-76
2023/01/26 13:35:54;;;;;;;;;;;9.10;99.90;;;;;;5033711;28;20245;-76
2023/01/26 13:38:54;;;;;;;;;;;9.20;99.90;;;;;;5033660;28;19905;-76
2023/01/26 13:41:20;;;;;;;;;;;9.20;99.90;;;;;;4953410;28;19910;-77
2023/01/26 13:43:50;;;;;;;;;;;10.00;99.90;;;;;;5016936;28;19905;-75
2023/01/26 13:46:19;;;;;;;;;;;9.00;99.90;;;;;;5033488;28;19909;-76
2023/01/26 13:48:46;;;;;;;;;;;9.10;99.90;;;;;;5033483;28;19940;-75
2023/01/26 13:51:14;;;;;;;;;;;9.20;99.90;;;;;;5033362;28;19906;-76
2023/01/26 13:53:42;;;;;;;;;;;9.20;99.90;;;;;;5015786;28;20390;-76
2023/01/26 13:56:22;;;;;;;;;;;9.10;99.90;;;;;;5033366;28;20414;-76
2023/01/26 13:58:47;;;;;;;;;;;9.10;99.90;;;;;;5015599;28;19905;-76
2023/01/26 14:01:13;;;;;;;;;;;9.10;99.90;;;;;;5015520;28;19962;-75
2023/01/26 14:03:39;;;;;;;;;;;9.20;99.90;;;;;;5015997;28;19905;-76
2023/01/26 14:06:18;;;;;;;;;;;9.70;99.90;;;;;;5037029;28;20318;-76
2023/01/26 14:08:48;;;;;;;;;;;9.30;99.90;;;;;;5037071;28;20000;-76
2023/01/26 14:11:18;;;;;;;;;;;9.70;99.90;;;;;;5036857;28;19911;-76
2023/01/26 14:13:46;;;;;;;;;;;9.40;99.90;;;;;;5018937;28;19905;-76
2023/01/26 14:16:19;;;;;;;;;;;9.30;99.90;;;;;;5036766;28;20280;-76
2023/01/26 14:18:46;;;;;;;;;;;9.70;99.90;;;;;;5036717;28;20272;-75
2023/01/26 14:21:17;;;;;;;;;;;9.10;99.90;;;;;;5018891;28;19905;-76
2023/01/26 14:23:43;;;;;;;;;;;8.80;99.90;;;;;;5036483;28;19909;-76
2023/01/26 14:26:18;;;;;;;;;;;8.70;99.90;;;;;;5018882;28;19935;-75
2023/01/26 14:28:44;;;;;;;;;;;8.60;99.90;;;;;;5037203;28;20315;-75
2023/01/26 14:31:13;;;;;;;;;;;8.40;99.90;;;;;;5018845;28;19905;-75
2023/01/26 14:33:39;;;;;;;;;;;8.30;99.90;;;;;;5018863;28;19912;-76
2023/01/26 14:36:04;;;;;;;;;;;9.50;99.90;;;;;;5018923;28;19905;-76
2023/01/26 14:38:38;;;;;;;;;;;8.10;99.90;;;;;;5037163;28;19940;-76
2023/01/26 14:41:09;;;;;;;;;;;8.00;99.90;;;;;;5018787;28;19951;-76
2023/01/26 14:43:34;;;;;;;;;;;7.90;99.90;;;;;;5036311;28;20449;-76
2023/01/26 14:46:00;;;;;;;;;;;7.90;99.90;;;;;;5036269;28;19917;-75
2023/01/26 14:48:30;;;;;;;;;;;7.90;99.90;;;;;;5036149;28;19905;-76
2023/01/26 14:50:56;;;;;;;;;;;7.80;99.90;;;;;;5018271;28;19905;-76
2023/01/26 14:53:23;;;;;;;;;;;7.80;99.90;;;;;;5036008;28;19970;-77
2023/01/26 14:55:49;;;;;;;;;;;7.80;99.90;;;;;;5036065;28;19905;-76
2023/01/26 14:58:19;;;;;;;;;;;7.70;99.90;;;;;;5018264;28;19905;-76
2023/01/26 15:00:48;;;;;;;;;;;7.70;99.90;;;;;;5018148;28;19911;-76
2023/01/26 15:03:26;;;;;;;;;;;7.70;99.90;;;;;;5018205;28;19905;-76
2023/01/26 15:06:04;;;;;;;;;;;7.60;99.90;;;;;;5018018;28;19972;-76
2023/01/26 15:08:30;;;;;;;;;;;7.50;99.90;;;;;;5036331;28;19905;-76
2023/01/26 15:13:45;;;;;;;;;;;7.50;99.90;;;;;;5036642;28;19913;-76
2023/01/26 15:16:18;;;;;;;;;;;7.50;99.90;;;;;;5017293;28;20013;-76
2023/01/26 15:18:44;;;;;;;;;;;7.40;99.90;;;;;;5036146;28;20303;-76
2023/01/26 15:21:10;;;;;;;;;;;7.30;99.90;;;;;;5017776;28;19905;-76
2023/01/26 15:23:36;;;;;;;;;;;7.30;99.90;;;;;;5036147;28;19955;-76